Flight Track Log - Related Links

Times and Time Zones

All times are in EDT time to prevent confusion due to time zone crossing. See the TYR850 flight status page for this flight to view local times or setup timezone preferences in your user account.

Time Position Orientation Groundspeed Altitude Reporting Facility
EDT Latitude Longitude Course Direction KTS MPH feet Rate Location/Type
Mon 10:37:00 PM 42.4367 19.2868 343° North  Level Estimated
Mon 10:38:00 PM 42.5218 19.2501 342° North  Level Estimated
Mon 10:39:00 PM 42.6069 19.2132 342° North  Level Estimated
Mon 10:40:00 PM 42.6920 19.1762 342° North  Level Estimated
Mon 10:41:00 PM 42.7770 19.1391 342° North  Level Estimated
Mon 10:42:00 PM 42.8620 19.1019 342° North  Level Estimated
Mon 10:43:00 PM 42.9471 19.0647 342° North  Level Estimated
Mon 10:44:00 PM 43.0321 19.0273 342° North  Level Estimated
Mon 10:45:00 PM 43.1171 18.9898 342° North  Level Estimated
Mon 10:46:00 PM 43.2021 18.9522 342° North  Level Estimated
Mon 10:47:00 PM 43.2871 18.9145 342° North  Level Estimated
Mon 10:48:00 PM 43.3720 18.8767 342° North  Level Estimated
Mon 10:49:00 PM 43.4570 18.8388 342° North  Level Estimated
Mon 10:50:00 PM 43.5419 18.8007 342° North  Level Estimated
Mon 10:51:00 PM 43.6269 18.7626 342° North  Level Estimated
Mon 10:52:00 PM 43.7118 18.7244 342° North  Level Estimated
Mon 10:53:00 PM 43.7967 18.6860 342° North  Level Estimated
Mon 10:54:00 PM 43.8816 18.6476 342° North  Level Estimated
Mon 10:55:00 PM 43.9665 18.6090 342° North  Level Estimated
Mon 10:56:00 PM 44.0513 18.5704 342° North  Level Estimated
Mon 10:57:00 PM 44.1362 18.5316 342° North  Level Estimated
Mon 10:58:00 PM 44.2210 18.4927 342° North  Level Estimated
Mon 10:59:00 PM 44.3059 18.4537 342° North  Level Estimated
Mon 11:00:00 PM 44.3907 18.4146 342° North  Level Estimated
Mon 11:01:00 PM 44.4755 18.3753 342° North  Level Estimated
Mon 11:02:00 PM 44.5603 18.3360 342° North  Level Estimated
Mon 11:03:00 PM 44.6450 18.2965 342° North  Level Estimated
Mon 11:04:00 PM 44.7298 18.2569 342° North  Level Estimated
Mon 11:05:00 PM 44.8145 18.2172 342° North  Level Estimated
Mon 11:06:00 PM 44.8993 18.1774 342° North  Level Estimated
Mon 11:07:00 PM 44.9840 18.1375 342° North  Level Estimated
Mon 11:08:00 PM 45.0687 18.0975 342° North  Level Estimated
Mon 11:09:00 PM 45.1534 18.0573 342° North  Level Estimated
Mon 11:10:00 PM 45.2381 18.0170 341° North  Level Estimated
Mon 11:11:00 PM 45.3227 17.9766 341° North  Level Estimated
Mon 11:12:00 PM 45.4074 17.9361 341° North  Level Estimated
Mon 11:13:00 PM 45.4920 17.8954 341° North  Level Estimated
Mon 11:14:00 PM 45.5766 17.8546 341° North  Level Estimated
Mon 11:15:00 PM 45.6612 17.8137 341° North  Level Estimated
Mon 11:16:00 PM 45.7458 17.7727 341° North  Level Estimated
Mon 11:17:00 PM 45.8304 17.7316 341° North  Level Estimated
Mon 11:18:00 PM 45.9150 17.6903 341° North  Level Estimated
Mon 11:19:00 PM 45.9995 17.6489 341° North  Level Estimated
Mon 11:20:00 PM 46.0840 17.6074 341° North  Level Estimated
Mon 11:21:00 PM 46.1685 17.5658 341° North  Level Estimated
Mon 11:22:00 PM 46.2531 17.5240 341° North  Level Estimated
Mon 11:23:00 PM 46.3375 17.4821 341° North  Level Estimated
Mon 11:24:00 PM 46.4220 17.4401 341° North  Level Estimated
Mon 11:25:00 PM 46.5065 17.3979 341° North  Level Estimated
Mon 11:26:00 PM 46.5909 17.3556 341° North  Level Estimated
Mon 11:27:00 PM 46.6753 17.3132 341° North  Level Estimated
Mon 11:28:00 PM 46.7597 17.2706 341° North  Level Estimated
Mon 11:29:00 PM 46.8441 17.2279 341° North  Level Estimated
Mon 11:30:00 PM 46.9285 17.1851 341° North  Level Estimated
Mon 11:31:00 PM 47.0129 17.1421 341° North  Level Estimated
Mon 11:32:00 PM 47.0972 17.0990 341° North  Level Estimated
Mon 11:33:00 PM 47.1815 17.0558 341° North  Level Estimated
Mon 11:34:00 PM 47.2658 17.0124 341° North  Level Estimated
Mon 11:35:00 PM 47.3501 16.9689 341° North  Level Estimated
Mon 11:36:00 PM 47.4344 16.9252 341° North  Level Estimated
Mon 11:37:00 PM 47.5187 16.8815 341° North  Level Estimated
Mon 11:38:00 PM 47.6029 16.8375 341° North  Level Estimated
Mon 11:39:00 PM 47.6871 16.7935 341° North  Level Estimated
Mon 11:40:00 PM 47.7713 16.7492 341° North  Level Estimated
Mon 11:41:00 PM 47.8555 16.7049 341° North  Level Estimated
Mon 11:42:00 PM 47.9397 16.6604 340° North  Level Estimated
Mon 11:43:00 PM 48.0239 16.6157 340° North  Level Estimated
Mon 11:44:00 PM 48.1080 16.5709 340° North  Level Estimated
Mon 11:45:00 PM 48.1103 16.5697 340° North  Level Estimated
Mon 11:46:00 PM 48.1103 16.5697 146° Southeast  Level Estimated
Mon 11:47:00 PM 48.1103 16.5697 146° Southeast  Level Estimated
Mon 11:48:00 PM 48.1103 16.5697 146° Southeast  Level Estimated
Mon 11:49:00 PM 48.1103 16.5697 146° Southeast  Level Estimated
Mon 11:50:00 PM 48.1103 16.5697 146° Southeast  Level Estimated
Mon 11:51:00 PM 48.1103 16.5697 146° Southeast  Level Estimated
Mon 11:52:00 PM 48.1103 16.5697 146° Southeast  Level Estimated
Mon 11:53:00 PM 48.1103 16.5697 146° Southeast  Level Estimated
Mon 11:54:00 PM 48.1103 16.5697 146° Southeast  Level Estimated
Mon 11:55:00 PM 48.1103 16.5697 146° Southeast  Level Estimated

Login

Don't have an account? Register now (free) for customized features, flight alerts, and more!